sensor_id;sensor_type;location;lat;lon;timestamp;P1;durP1;ratioP1;P2;durP2;ratioP2
68792;SDS011;55778;54.346;10.210;2023-06-14T00:02:12;8.27;;;3.63;;
68792;SDS011;55778;54.346;10.210;2023-06-14T00:04:38;7.43;;;3.60;;
68792;SDS011;55778;54.346;10.210;2023-06-14T00:07:06;8.52;;;3.40;;
68792;SDS011;55778;54.346;10.210;2023-06-14T00:09:35;10.63;;;3.80;;
68792;SDS011;55778;54.346;10.210;2023-06-14T00:12:01;9.38;;;3.63;;
68792;SDS011;55778;54.346;10.210;2023-06-14T00:14:26;5.10;;;3.28;;
68792;SDS011;55778;54.346;10.210;2023-06-14T00:16:51;8.77;;;3.85;;
68792;SDS011;55778;54.346;10.210;2023-06-14T00:19:24;7.25;;;3.90;;
68792;SDS011;55778;54.346;10.210;2023-06-14T00:21:50;7.32;;;4.20;;
68792;SDS011;55778;54.346;10.210;2023-06-14T00:24:17;8.00;;;3.72;;
68792;SDS011;55778;54.346;10.210;2023-06-14T00:26:42;7.80;;;4.00;;
68792;SDS011;55778;54.346;10.210;2023-06-14T00:29:07;9.07;;;3.90;;
68792;SDS011;55778;54.346;10.210;2023-06-14T00:31:33;9.73;;;4.30;;
68792;SDS011;55778;54.346;10.210;2023-06-14T00:33:58;7.43;;;3.97;;
68792;SDS011;55778;54.346;10.210;2023-06-14T00:36:23;7.72;;;3.90;;
68792;SDS011;55778;54.346;10.210;2023-06-14T00:38:49;8.63;;;3.85;;
68792;SDS011;55778;54.346;10.210;2023-06-14T00:41:14;8.32;;;4.22;;
68792;SDS011;55778;54.346;10.210;2023-06-14T00:43:39;8.25;;;4.32;;
68792;SDS011;55778;54.346;10.210;2023-06-14T00:46:05;8.80;;;4.20;;
68792;SDS011;55778;54.346;10.210;2023-06-14T00:48:30;6.85;;;4.07;;
68792;SDS011;55778;54.346;10.210;2023-06-14T00:50:56;9.27;;;4.25;;
68792;SDS011;55778;54.346;10.210;2023-06-14T00:53:22;9.27;;;4.30;;
68792;SDS011;55778;54.346;10.210;2023-06-14T00:55:50;8.38;;;4.60;;
68792;SDS011;55778;54.346;10.210;2023-06-14T00:58:15;9.98;;;4.57;;
68792;SDS011;55778;54.346;10.210;2023-06-14T01:00:41;8.77;;;4.57;;
68792;SDS011;55778;54.346;10.210;2023-06-14T01:03:07;8.75;;;4.43;;
68792;SDS011;55778;54.346;10.210;2023-06-14T01:05:32;11.38;;;4.13;;
68792;SDS011;55778;54.346;10.210;2023-06-14T01:10:52;10.32;;;4.57;;
68792;SDS011;55778;54.346;10.210;2023-06-14T01:13:29;9.35;;;4.43;;
68792;SDS011;55778;54.346;10.210;2023-06-14T01:15:59;7.13;;;4.38;;
68792;SDS011;55778;54.346;10.210;2023-06-14T01:18:25;8.80;;;4.32;;
68792;SDS011;55778;54.346;10.210;2023-06-14T01:20:51;10.23;;;4.68;;
68792;SDS011;55778;54.346;10.210;2023-06-14T01:23:20;9.80;;;4.18;;
68792;SDS011;55778;54.346;10.210;2023-06-14T01:25:47;8.82;;;4.32;;
68792;SDS011;55778;54.346;10.210;2023-06-14T01:28:18;7.90;;;4.45;;
68792;SDS011;55778;54.346;10.210;2023-06-14T01:30:46;8.80;;;4.22;;
68792;SDS011;55778;54.346;10.210;2023-06-14T01:33:24;9.05;;;4.35;;
68792;SDS011;55778;54.346;10.210;2023-06-14T01:35:52;9.18;;;4.50;;
68792;SDS011;55778;54.346;10.210;2023-06-14T01:38:19;7.82;;;4.10;;
68792;SDS011;55778;54.346;10.210;2023-06-14T01:40:46;9.15;;;4.38;;
68792;SDS011;55778;54.346;10.210;2023-06-14T01:43:13;12.13;;;4.57;;
68792;SDS011;55778;54.346;10.210;2023-06-14T01:45:40;9.70;;;4.25;;
68792;SDS011;55778;54.346;10.210;2023-06-14T01:48:07;8.43;;;4.50;;
68792;SDS011;55778;54.346;10.210;2023-06-14T01:50:33;11.05;;;4.53;;
68792;SDS011;55778;54.346;10.210;2023-06-14T01:52:59;8.38;;;4.25;;
68792;SDS011;55778;54.346;10.210;2023-06-14T01:55:24;9.32;;;4.60;;
68792;SDS011;55778;54.346;10.210;2023-06-14T01:57:50;8.80;;;5.38;;
68792;SDS011;55778;54.346;10.210;2023-06-14T02:00:16;8.80;;;4.18;;
68792;SDS011;55778;54.346;10.210;2023-06-14T02:02:43;7.90;;;4.45;;
68792;SDS011;55778;54.346;10.210;2023-06-14T02:05:08;10.00;;;4.93;;
68792;SDS011;55778;54.346;10.210;2023-06-14T02:07:35;9.00;;;4.28;;
68792;SDS011;55778;54.346;10.210;2023-06-14T02:10:01;7.68;;;4.18;;
68792;SDS011;55778;54.346;10.210;2023-06-14T02:12:29;10.02;;;4.15;;
68792;SDS011;55778;54.346;10.210;2023-06-14T02:14:55;9.57;;;3.78;;
68792;SDS011;55778;54.346;10.210;2023-06-14T02:17:21;8.07;;;4.13;;
68792;SDS011;55778;54.346;10.210;2023-06-14T02:19:47;8.93;;;4.50;;
68792;SDS011;55778;54.346;10.210;2023-06-14T02:22:13;7.03;;;4.13;;
68792;SDS011;55778;54.346;10.210;2023-06-14T02:24:40;9.05;;;4.60;;
68792;SDS011;55778;54.346;10.210;2023-06-14T02:27:05;11.40;;;5.70;;
68792;SDS011;55778;54.346;10.210;2023-06-14T02:29:31;9.40;;;4.30;;
68792;SDS011;55778;54.346;10.210;2023-06-14T02:31:57;12.05;;;3.95;;
68792;SDS011;55778;54.346;10.210;2023-06-14T02:34:22;7.93;;;3.85;;
68792;SDS011;55778;54.346;10.210;2023-06-14T02:36:48;7.28;;;3.85;;
68792;SDS011;55778;54.346;10.210;2023-06-14T02:39:13;6.43;;;3.95;;
68792;SDS011;55778;54.346;10.210;2023-06-14T02:41:39;8.18;;;3.70;;
68792;SDS011;55778;54.346;10.210;2023-06-14T02:44:04;10.68;;;4.65;;
68792;SDS011;55778;54.346;10.210;2023-06-14T02:46:31;8.13;;;4.40;;
68792;SDS011;55778;54.346;10.210;2023-06-14T02:48:57;8.40;;;4.15;;
68792;SDS011;55778;54.346;10.210;2023-06-14T02:51:22;6.30;;;4.00;;
68792;SDS011;55778;54.346;10.210;2023-06-14T02:53:47;9.60;;;5.10;;
68792;SDS011;55778;54.346;10.210;2023-06-14T02:56:13;10.48;;;4.95;;
68792;SDS011;55778;54.346;10.210;2023-06-14T02:58:38;9.70;;;4.75;;
68792;SDS011;55778;54.346;10.210;2023-06-14T03:01:04;11.40;;;4.00;;
68792;SDS011;55778;54.346;10.210;2023-06-14T03:03:32;9.77;;;4.20;;
68792;SDS011;55778;54.346;10.210;2023-06-14T03:05:58;8.60;;;4.18;;
68792;SDS011;55778;54.346;10.210;2023-06-14T03:08:29;9.40;;;4.28;;
68792;SDS011;55778;54.346;10.210;2023-06-14T03:10:56;13.27;;;4.38;;
68792;SDS011;55778;54.346;10.210;2023-06-14T03:13:22;9.70;;;4.30;;
68792;SDS011;55778;54.346;10.210;2023-06-14T03:15:48;10.20;;;4.85;;
68792;SDS011;55778;54.346;10.210;2023-06-14T03:18:15;9.45;;;4.78;;
68792;SDS011;55778;54.346;10.210;2023-06-14T03:20:42;10.85;;;4.80;;
68792;SDS011;55778;54.346;10.210;2023-06-14T03:23:08;10.13;;;4.35;;
68792;SDS011;55778;54.346;10.210;2023-06-14T03:25:34;9.32;;;4.18;;
68792;SDS011;55778;54.346;10.210;2023-06-14T03:30:29;6.32;;;3.80;;
68792;SDS011;55778;54.346;10.210;2023-06-14T03:32:55;13.05;;;5.43;;
68792;SDS011;55778;54.346;10.210;2023-06-14T03:35:21;9.10;;;4.80;;
68792;SDS011;55778;54.346;10.210;2023-06-14T03:37:48;7.13;;;4.18;;
68792;SDS011;55778;54.346;10.210;2023-06-14T03:40:14;7.28;;;4.07;;
68792;SDS011;55778;54.346;10.210;2023-06-14T03:42:43;9.90;;;4.22;;
68792;SDS011;55778;54.346;10.210;2023-06-14T03:45:09;10.60;;;4.03;;
68792;SDS011;55778;54.346;10.210;2023-06-14T03:47:34;6.75;;;4.32;;
68792;SDS011;55778;54.346;10.210;2023-06-14T03:50:03;13.18;;;5.47;;
68792;SDS011;55778;54.346;10.210;2023-06-14T03:52:29;7.70;;;4.30;;
68792;SDS011;55778;54.346;10.210;2023-06-14T03:54:56;6.88;;;4.20;;
68792;SDS011;55778;54.346;10.210;2023-06-14T03:57:22;9.27;;;4.45;;
68792;SDS011;55778;54.346;10.210;2023-06-14T03:59:48;7.15;;;3.85;;
68792;SDS011;55778;54.346;10.210;2023-06-14T04:02:13;9.60;;;3.97;;
68792;SDS011;55778;54.346;10.210;2023-06-14T04:04:41;10.13;;;3.70;;
68792;SDS011;55778;54.346;10.210;2023-06-14T04:07:09;9.40;;;4.20;;
68792;SDS011;55778;54.346;10.210;2023-06-14T04:09:36;6.32;;;3.55;;
68792;SDS011;55778;54.346;10.210;2023-06-14T04:12:02;7.65;;;3.95;;
68792;SDS011;55778;54.346;10.210;2023-06-14T04:14:28;8.30;;;4.03;;
68792;SDS011;55778;54.346;10.210;2023-06-14T04:16:53;6.40;;;3.75;;
68792;SDS011;55778;54.346;10.210;2023-06-14T04:19:19;6.80;;;3.60;;
68792;SDS011;55778;54.346;10.210;2023-06-14T04:21:44;6.22;;;3.70;;
68792;SDS011;55778;54.346;10.210;2023-06-14T04:24:09;7.68;;;3.60;;
68792;SDS011;55778;54.346;10.210;2023-06-14T04:26:38;7.50;;;3.50;;
68792;SDS011;55778;54.346;10.210;2023-06-14T04:29:09;9.30;;;3.55;;
68792;SDS011;55778;54.346;10.210;2023-06-14T04:31:34;6.57;;;3.60;;
68792;SDS011;55778;54.346;10.210;2023-06-14T04:34:02;7.88;;;3.47;;
68792;SDS011;55778;54.346;10.210;2023-06-14T04:36:31;6.93;;;3.63;;
68792;SDS011;55778;54.346;10.210;2023-06-14T04:38:59;8.07;;;3.90;;
68792;SDS011;55778;54.346;10.210;2023-06-14T04:41:26;7.93;;;3.90;;
68792;SDS011;55778;54.346;10.210;2023-06-14T04:43:55;8.70;;;3.28;;
68792;SDS011;55778;54.346;10.210;2023-06-14T04:46:22;5.10;;;3.20;;
68792;SDS011;55778;54.346;10.210;2023-06-14T04:48:47;6.68;;;3.35;;
68792;SDS011;55778;54.346;10.210;2023-06-14T04:51:15;8.00;;;3.53;;
68792;SDS011;55778;54.346;10.210;2023-06-14T04:53:41;7.15;;;3.55;;
68792;SDS011;55778;54.346;10.210;2023-06-14T04:56:08;5.95;;;3.53;;
68792;SDS011;55778;54.346;10.210;2023-06-14T04:58:35;7.38;;;3.75;;
68792;SDS011;55778;54.346;10.210;2023-06-14T05:01:00;8.50;;;3.50;;
68792;SDS011;55778;54.346;10.210;2023-06-14T05:03:27;12.80;;;4.32;;
68792;SDS011;55778;54.346;10.210;2023-06-14T05:05:52;8.05;;;3.60;;
68792;SDS011;55778;54.346;10.210;2023-06-14T05:08:18;6.57;;;3.63;;
68792;SDS011;55778;54.346;10.210;2023-06-14T05:10:45;7.30;;;3.22;;
68792;SDS011;55778;54.346;10.210;2023-06-14T05:13:10;8.07;;;3.00;;
68792;SDS011;55778;54.346;10.210;2023-06-14T05:15:36;9.77;;;5.40;;
68792;SDS011;55778;54.346;10.210;2023-06-14T05:18:01;8.10;;;3.50;;
68792;SDS011;55778;54.346;10.210;2023-06-14T05:20:27;8.75;;;3.80;;
68792;SDS011;55778;54.346;10.210;2023-06-14T05:22:53;5.00;;;3.20;;
68792;SDS011;55778;54.346;10.210;2023-06-14T05:25:19;6.75;;;2.83;;
68792;SDS011;55778;54.346;10.210;2023-06-14T05:27:46;8.43;;;3.53;;
68792;SDS011;55778;54.346;10.210;2023-06-14T05:30:11;8.35;;;3.42;;
68792;SDS011;55778;54.346;10.210;2023-06-14T05:32:37;6.63;;;3.60;;
68792;SDS011;55778;54.346;10.210;2023-06-14T05:35:03;5.65;;;2.88;;
68792;SDS011;55778;54.346;10.210;2023-06-14T05:37:29;5.07;;;3.20;;
68792;SDS011;55778;54.346;10.210;2023-06-14T05:39:55;8.20;;;3.38;;
68792;SDS011;55778;54.346;10.210;2023-06-14T05:42:21;5.38;;;3.13;;
68792;SDS011;55778;54.346;10.210;2023-06-14T05:44:46;8.10;;;3.00;;
68792;SDS011;55778;54.346;10.210;2023-06-14T05:47:12;5.75;;;3.00;;
68792;SDS011;55778;54.346;10.210;2023-06-14T05:49:37;6.85;;;3.08;;
68792;SDS011;55778;54.346;10.210;2023-06-14T05:52:02;9.05;;;3.33;;
68792;SDS011;55778;54.346;10.210;2023-06-14T05:54:28;5.90;;;2.97;;
68792;SDS011;55778;54.346;10.210;2023-06-14T05:56:53;5.13;;;3.00;;
68792;SDS011;55778;54.346;10.210;2023-06-14T05:59:19;7.57;;;3.97;;
68792;SDS011;55778;54.346;10.210;2023-06-14T06:01:44;8.35;;;3.13;;
68792;SDS011;55778;54.346;10.210;2023-06-14T06:04:10;7.80;;;3.00;;
68792;SDS011;55778;54.346;10.210;2023-06-14T06:06:35;6.13;;;3.20;;
68792;SDS011;55778;54.346;10.210;2023-06-14T06:09:00;6.35;;;2.60;;
68792;SDS011;55778;54.346;10.210;2023-06-14T06:11:26;6.90;;;3.15;;
68792;SDS011;55778;54.346;10.210;2023-06-14T06:13:51;6.45;;;3.83;;
68792;SDS011;55778;54.346;10.210;2023-06-14T06:16:17;6.57;;;3.35;;
68792;SDS011;55778;54.346;10.210;2023-06-14T06:18:42;5.78;;;2.90;;
68792;SDS011;55778;54.346;10.210;2023-06-14T06:21:07;5.97;;;2.63;;
68792;SDS011;55778;54.346;10.210;2023-06-14T06:23:33;5.78;;;2.90;;
68792;SDS011;55778;54.346;10.210;2023-06-14T06:25:58;4.63;;;3.10;;
68792;SDS011;55778;54.346;10.210;2023-06-14T06:28:24;6.68;;;2.85;;
68792;SDS011;55778;54.346;10.210;2023-06-14T06:30:49;5.95;;;2.83;;
68792;SDS011;55778;54.346;10.210;2023-06-14T06:33:15;6.53;;;2.95;;
68792;SDS011;55778;54.346;10.210;2023-06-14T06:35:40;8.23;;;2.92;;
68792;SDS011;55778;54.346;10.210;2023-06-14T06:38:06;4.55;;;2.53;;
68792;SDS011;55778;54.346;10.210;2023-06-14T06:40:31;5.68;;;3.38;;
68792;SDS011;55778;54.346;10.210;2023-06-14T06:42:57;5.60;;;2.75;;
68792;SDS011;55778;54.346;10.210;2023-06-14T06:45:22;6.05;;;2.60;;
68792;SDS011;55778;54.346;10.210;2023-06-14T06:47:48;4.22;;;2.55;;
68792;SDS011;55778;54.346;10.210;2023-06-14T06:50:15;5.60;;;2.92;;
68792;SDS011;55778;54.346;10.210;2023-06-14T06:52:40;5.47;;;2.50;;
68792;SDS011;55778;54.346;10.210;2023-06-14T06:55:06;7.25;;;3.28;;
68792;SDS011;55778;54.346;10.210;2023-06-14T06:57:32;6.38;;;2.70;;
68792;SDS011;55778;54.346;10.210;2023-06-14T06:59:57;4.78;;;3.03;;
68792;SDS011;55778;54.346;10.210;2023-06-14T07:02:22;5.78;;;2.42;;
68792;SDS011;55778;54.346;10.210;2023-06-14T07:04:48;7.10;;;2.90;;
68792;SDS011;55778;54.346;10.210;2023-06-14T07:07:13;6.85;;;2.70;;
68792;SDS011;55778;54.346;10.210;2023-06-14T07:09:39;6.63;;;2.78;;
68792;SDS011;55778;54.346;10.210;2023-06-14T07:12:06;4.53;;;2.20;;
68792;SDS011;55778;54.346;10.210;2023-06-14T07:14:32;8.25;;;2.47;;
68792;SDS011;55778;54.346;10.210;2023-06-14T07:16:58;5.95;;;2.92;;
68792;SDS011;55778;54.346;10.210;2023-06-14T07:19:23;4.13;;;2.67;;
68792;SDS011;55778;54.346;10.210;2023-06-14T07:21:48;6.00;;;2.45;;
68792;SDS011;55778;54.346;10.210;2023-06-14T07:24:14;8.05;;;2.88;;
68792;SDS011;55778;54.346;10.210;2023-06-14T07:26:40;8.05;;;2.42;;
68792;SDS011;55778;54.346;10.210;2023-06-14T07:29:05;6.47;;;2.70;;
68792;SDS011;55778;54.346;10.210;2023-06-14T07:31:31;6.90;;;2.47;;
68792;SDS011;55778;54.346;10.210;2023-06-14T07:33:56;7.07;;;2.17;;
68792;SDS011;55778;54.346;10.210;2023-06-14T07:36:22;6.70;;;2.50;;
68792;SDS011;55778;54.346;10.210;2023-06-14T07:38:47;7.15;;;2.55;;
68792;SDS011;55778;54.346;10.210;2023-06-14T07:41:13;6.38;;;3.10;;
68792;SDS011;55778;54.346;10.210;2023-06-14T07:43:38;6.20;;;2.50;;
68792;SDS011;55778;54.346;10.210;2023-06-14T07:46:04;12.70;;;2.53;;
68792;SDS011;55778;54.346;10.210;2023-06-14T07:48:30;4.32;;;2.30;;
68792;SDS011;55778;54.346;10.210;2023-06-14T07:50:55;7.57;;;2.65;;
68792;SDS011;55778;54.346;10.210;2023-06-14T07:53:21;4.00;;;2.30;;
68792;SDS011;55778;54.346;10.210;2023-06-14T07:55:46;3.78;;;2.25;;
68792;SDS011;55778;54.346;10.210;2023-06-14T07:58:12;6.70;;;2.13;;
68792;SDS011;55778;54.346;10.210;2023-06-14T08:00:37;5.57;;;2.22;;
68792;SDS011;55778;54.346;10.210;2023-06-14T08:03:03;5.22;;;2.40;;
68792;SDS011;55778;54.346;10.210;2023-06-14T08:05:29;4.82;;;2.00;;
68792;SDS011;55778;54.346;10.210;2023-06-14T08:07:54;5.90;;;2.60;;
68792;SDS011;55778;54.346;10.210;2023-06-14T08:10:20;5.82;;;2.30;;
68792;SDS011;55778;54.346;10.210;2023-06-14T08:12:46;4.15;;;2.45;;
68792;SDS011;55778;54.346;10.210;2023-06-14T08:15:11;6.32;;;2.35;;
68792;SDS011;55778;54.346;10.210;2023-06-14T08:17:37;4.65;;;2.30;;
68792;SDS011;55778;54.346;10.210;2023-06-14T08:20:02;6.85;;;2.30;;
68792;SDS011;55778;54.346;10.210;2023-06-14T08:22:31;7.15;;;2.47;;
68792;SDS011;55778;54.346;10.210;2023-06-14T08:25:02;9.52;;;2.70;;
68792;SDS011;55778;54.346;10.210;2023-06-14T08:27:28;5.72;;;2.65;;
68792;SDS011;55778;54.346;10.210;2023-06-14T08:29:53;4.78;;;2.25;;
68792;SDS011;55778;54.346;10.210;2023-06-14T08:32:19;5.75;;;2.13;;
68792;SDS011;55778;54.346;10.210;2023-06-14T08:34:44;4.43;;;2.33;;
68792;SDS011;55778;54.346;10.210;2023-06-14T08:37:09;5.03;;;2.25;;
68792;SDS011;55778;54.346;10.210;2023-06-14T08:39:35;8.63;;;2.50;;
68792;SDS011;55778;54.346;10.210;2023-06-14T08:42:01;6.60;;;2.80;;
68792;SDS011;55778;54.346;10.210;2023-06-14T08:44:28;5.00;;;2.42;;
68792;SDS011;55778;54.346;10.210;2023-06-14T08:46:55;4.32;;;2.22;;
68792;SDS011;55778;54.346;10.210;2023-06-14T08:49:22;7.13;;;2.63;;
68792;SDS011;55778;54.346;10.210;2023-06-14T08:51:50;4.35;;;2.65;;
68792;SDS011;55778;54.346;10.210;2023-06-14T08:54:22;5.28;;;2.72;;
68792;SDS011;55778;54.346;10.210;2023-06-14T08:56:49;3.97;;;2.22;;
68792;SDS011;55778;54.346;10.210;2023-06-14T08:59:16;8.38;;;3.97;;
68792;SDS011;55778;54.346;10.210;2023-06-14T09:01:43;5.43;;;2.35;;
68792;SDS011;55778;54.346;10.210;2023-06-14T09:04:10;4.05;;;2.38;;
68792;SDS011;55778;54.346;10.210;2023-06-14T09:06:36;6.45;;;2.45;;
68792;SDS011;55778;54.346;10.210;2023-06-14T09:09:01;4.90;;;2.42;;
68792;SDS011;55778;54.346;10.210;2023-06-14T09:11:29;5.32;;;2.33;;
68792;SDS011;55778;54.346;10.210;2023-06-14T09:13:55;5.43;;;2.15;;
68792;SDS011;55778;54.346;10.210;2023-06-14T09:16:21;6.38;;;2.45;;
68792;SDS011;55778;54.346;10.210;2023-06-14T09:18:46;4.88;;;2.20;;
68792;SDS011;55778;54.346;10.210;2023-06-14T09:21:13;6.25;;;2.42;;
68792;SDS011;55778;54.346;10.210;2023-06-14T09:23:41;6.43;;;2.42;;
68792;SDS011;55778;54.346;10.210;2023-06-14T09:26:09;5.45;;;2.45;;
68792;SDS011;55778;54.346;10.210;2023-06-14T09:28:56;5.40;;;2.38;;
68792;SDS011;55778;54.346;10.210;2023-06-14T09:31:22;6.45;;;2.63;;
68792;SDS011;55778;54.346;10.210;2023-06-14T09:33:49;4.75;;;2.13;;
68792;SDS011;55778;54.346;10.210;2023-06-14T09:36:18;4.68;;;2.40;;
68792;SDS011;55778;54.346;10.210;2023-06-14T09:38:53;4.63;;;2.10;;
68792;SDS011;55778;54.346;10.210;2023-06-14T09:44:02;5.85;;;2.50;;
68792;SDS011;55778;54.346;10.210;2023-06-14T09:46:30;4.38;;;2.05;;
68792;SDS011;55778;54.346;10.210;2023-06-14T09:48:56;4.13;;;2.15;;
68792;SDS011;55778;54.346;10.210;2023-06-14T09:51:22;4.72;;;2.00;;
68792;SDS011;55778;54.346;10.210;2023-06-14T09:53:48;6.05;;;2.38;;
68792;SDS011;55778;54.346;10.210;2023-06-14T09:56:27;3.63;;;2.03;;
68792;SDS011;55778;54.346;10.210;2023-06-14T09:58:57;4.90;;;2.28;;
68792;SDS011;55778;54.346;10.210;2023-06-14T10:01:24;3.90;;;2.20;;
68792;SDS011;55778;54.346;10.210;2023-06-14T10:03:55;7.00;;;2.40;;
68792;SDS011;55778;54.346;10.210;2023-06-14T10:06:30;3.95;;;2.58;;
68792;SDS011;55778;54.346;10.210;2023-06-14T10:08:57;4.25;;;2.10;;
68792;SDS011;55778;54.346;10.210;2023-06-14T10:11:26;5.97;;;2.47;;
68792;SDS011;55778;54.346;10.210;2023-06-14T10:13:52;3.05;;;2.13;;
68792;SDS011;55778;54.346;10.210;2023-06-14T10:19:19;4.50;;;2.15;;
68792;SDS011;55778;54.346;10.210;2023-06-14T10:21:51;3.33;;;1.77;;
68792;SDS011;55778;54.346;10.210;2023-06-14T10:24:21;4.32;;;2.00;;
68792;SDS011;55778;54.346;10.210;2023-06-14T10:26:56;6.55;;;2.33;;
68792;SDS011;55778;54.346;10.210;2023-06-14T10:29:22;5.67;;;2.47;;
68792;SDS011;55778;54.346;10.210;2023-06-14T10:31:53;4.40;;;2.17;;
68792;SDS011;55778;54.346;10.210;2023-06-14T10:34:22;4.22;;;1.90;;
68792;SDS011;55778;54.346;10.210;2023-06-14T10:39:28;4.57;;;2.30;;
68792;SDS011;55778;54.346;10.210;2023-06-14T10:41:54;4.45;;;1.95;;
68792;SDS011;55778;54.346;10.210;2023-06-14T10:46:46;3.97;;;2.00;;
68792;SDS011;55778;54.346;10.210;2023-06-14T10:49:16;5.18;;;1.80;;
68792;SDS011;55778;54.346;10.210;2023-06-14T10:51:44;6.25;;;2.33;;
68792;SDS011;55778;54.346;10.210;2023-06-14T10:54:17;4.70;;;1.70;;
68792;SDS011;55778;54.346;10.210;2023-06-14T10:59:18;3.97;;;1.80;;
68792;SDS011;55778;54.346;10.210;2023-06-14T11:04:51;3.65;;;1.80;;
68792;SDS011;55778;54.346;10.210;2023-06-14T11:10:13;3.60;;;2.17;;
68792;SDS011;55778;54.346;10.210;2023-06-14T11:12:44;4.63;;;2.05;;
68792;SDS011;55778;54.346;10.210;2023-06-14T11:15:12;3.90;;;2.00;;
68792;SDS011;55778;54.346;10.210;2023-06-14T11:17:38;3.50;;;2.08;;
68792;SDS011;55778;54.346;10.210;2023-06-14T11:20:07;5.78;;;2.10;;
68792;SDS011;55778;54.346;10.210;2023-06-14T11:22:44;5.15;;;2.00;;
68792;SDS011;55778;54.346;10.210;2023-06-14T11:25:13;4.13;;;2.38;;
68792;SDS011;55778;54.346;10.210;2023-06-14T11:27:38;3.25;;;2.10;;
68792;SDS011;55778;54.346;10.210;2023-06-14T11:30:06;2.88;;;2.00;;
68792;SDS011;55778;54.346;10.210;2023-06-14T11:34:58;3.63;;;2.00;;
68792;SDS011;55778;54.346;10.210;2023-06-14T11:37:25;3.38;;;2.00;;
68792;SDS011;55778;54.346;10.210;2023-06-14T11:39:56;4.40;;;2.05;;
68792;SDS011;55778;54.346;10.210;2023-06-14T11:42:22;5.85;;;2.15;;
68792;SDS011;55778;54.346;10.210;2023-06-14T11:44:48;6.28;;;2.75;;
68792;SDS011;55778;54.346;10.210;2023-06-14T11:47:14;4.05;;;2.20;;
68792;SDS011;55778;54.346;10.210;2023-06-14T11:49:40;6.30;;;2.35;;
68792;SDS011;55778;54.346;10.210;2023-06-14T11:52:07;5.38;;;2.08;;
68792;SDS011;55778;54.346;10.210;2023-06-14T11:54:33;5.13;;;2.15;;
68792;SDS011;55778;54.346;10.210;2023-06-14T11:56:58;3.13;;;2.10;;
68792;SDS011;55778;54.346;10.210;2023-06-14T11:59:24;6.25;;;2.22;;
68792;SDS011;55778;54.346;10.210;2023-06-14T12:01:50;4.30;;;2.35;;
68792;SDS011;55778;54.346;10.210;2023-06-14T12:04:28;4.20;;;2.00;;
68792;SDS011;55778;54.346;10.210;2023-06-14T12:06:54;3.25;;;2.00;;
68792;SDS011;55778;54.346;10.210;2023-06-14T12:09:22;5.85;;;2.55;;
68792;SDS011;55778;54.346;10.210;2023-06-14T12:11:50;4.00;;;2.20;;
68792;SDS011;55778;54.346;10.210;2023-06-14T12:14:28;6.47;;;2.40;;
68792;SDS011;55778;54.346;10.210;2023-06-14T12:17:05;5.13;;;2.05;;
68792;SDS011;55778;54.346;10.210;2023-06-14T12:19:31;6.00;;;2.40;;
68792;SDS011;55778;54.346;10.210;2023-06-14T12:22:00;8.32;;;2.22;;
68792;SDS011;55778;54.346;10.210;2023-06-14T12:24:29;4.90;;;2.40;;
68792;SDS011;55778;54.346;10.210;2023-06-14T12:26:57;4.95;;;2.13;;
68792;SDS011;55778;54.346;10.210;2023-06-14T12:29:24;6.75;;;2.35;;
68792;SDS011;55778;54.346;10.210;2023-06-14T12:31:50;3.58;;;2.03;;
68792;SDS011;55778;54.346;10.210;2023-06-14T12:34:15;6.88;;;2.45;;
68792;SDS011;55778;54.346;10.210;2023-06-14T12:36:41;3.88;;;2.50;;
68792;SDS011;55778;54.346;10.210;2023-06-14T12:39:09;5.03;;;2.33;;
68792;SDS011;55778;54.346;10.210;2023-06-14T12:41:35;4.40;;;2.28;;
68792;SDS011;55778;54.346;10.210;2023-06-14T12:44:01;3.95;;;2.17;;
68792;SDS011;55778;54.346;10.210;2023-06-14T12:46:30;4.60;;;2.38;;
68792;SDS011;55778;54.346;10.210;2023-06-14T12:48:56;5.95;;;2.80;;
68792;SDS011;55778;54.346;10.210;2023-06-14T12:51:22;5.28;;;2.60;;
68792;SDS011;55778;54.346;10.210;2023-06-14T12:53:47;4.28;;;2.17;;
68792;SDS011;55778;54.346;10.210;2023-06-14T12:56:14;6.20;;;2.38;;
68792;SDS011;55778;54.346;10.210;2023-06-14T12:58:40;5.43;;;2.40;;
68792;SDS011;55778;54.346;10.210;2023-06-14T13:01:06;4.85;;;2.15;;
68792;SDS011;55778;54.346;10.210;2023-06-14T13:03:32;5.25;;;2.20;;
68792;SDS011;55778;54.346;10.210;2023-06-14T13:05:58;3.70;;;2.28;;
68792;SDS011;55778;54.346;10.210;2023-06-14T13:08:24;6.10;;;2.28;;
68792;SDS011;55778;54.346;10.210;2023-06-14T13:10:49;4.95;;;2.67;;
68792;SDS011;55778;54.346;10.210;2023-06-14T13:13:15;7.25;;;2.47;;
68792;SDS011;55778;54.346;10.210;2023-06-14T13:15:40;5.30;;;2.40;;
68792;SDS011;55778;54.346;10.210;2023-06-14T13:18:05;5.35;;;2.47;;
68792;SDS011;55778;54.346;10.210;2023-06-14T13:20:31;4.25;;;2.28;;
68792;SDS011;55778;54.346;10.210;2023-06-14T13:22:57;6.28;;;2.35;;
68792;SDS011;55778;54.346;10.210;2023-06-14T13:25:22;5.97;;;2.63;;
68792;SDS011;55778;54.346;10.210;2023-06-14T13:27:48;5.13;;;2.60;;
68792;SDS011;55778;54.346;10.210;2023-06-14T13:30:13;6.13;;;2.60;;
68792;SDS011;55778;54.346;10.210;2023-06-14T13:32:39;4.90;;;2.40;;
68792;SDS011;55778;54.346;10.210;2023-06-14T13:35:05;4.03;;;2.65;;
68792;SDS011;55778;54.346;10.210;2023-06-14T13:37:30;6.38;;;2.67;;
68792;SDS011;55778;54.346;10.210;2023-06-14T13:39:56;5.43;;;2.47;;
68792;SDS011;55778;54.346;10.210;2023-06-14T13:42:21;6.95;;;2.80;;
68792;SDS011;55778;54.346;10.210;2023-06-14T13:44:47;7.55;;;3.13;;
68792;SDS011;55778;54.346;10.210;2023-06-14T13:47:12;6.68;;;2.40;;
68792;SDS011;55778;54.346;10.210;2023-06-14T13:49:38;7.63;;;2.75;;
68792;SDS011;55778;54.346;10.210;2023-06-14T13:52:03;4.05;;;2.50;;
68792;SDS011;55778;54.346;10.210;2023-06-14T13:54:29;4.13;;;2.55;;
68792;SDS011;55778;54.346;10.210;2023-06-14T13:56:54;6.90;;;2.70;;
68792;SDS011;55778;54.346;10.210;2023-06-14T13:59:20;4.00;;;2.65;;
68792;SDS011;55778;54.346;10.210;2023-06-14T14:01:45;5.50;;;2.65;;
68792;SDS011;55778;54.346;10.210;2023-06-14T14:04:11;7.47;;;2.90;;
68792;SDS011;55778;54.346;10.210;2023-06-14T14:06:36;4.57;;;2.67;;
68792;SDS011;55778;54.346;10.210;2023-06-14T14:09:02;5.75;;;2.80;;
68792;SDS011;55778;54.346;10.210;2023-06-14T14:11:28;5.78;;;2.80;;
68792;SDS011;55778;54.346;10.210;2023-06-14T14:13:54;6.70;;;2.65;;
68792;SDS011;55778;54.346;10.210;2023-06-14T14:16:19;4.25;;;2.40;;
68792;SDS011;55778;54.346;10.210;2023-06-14T14:18:45;7.78;;;2.92;;
68792;SDS011;55778;54.346;10.210;2023-06-14T14:21:11;6.43;;;2.88;;
68792;SDS011;55778;54.346;10.210;2023-06-14T14:23:36;4.20;;;3.25;;
68792;SDS011;55778;54.346;10.210;2023-06-14T14:26:02;9.55;;;2.88;;
68792;SDS011;55778;54.346;10.210;2023-06-14T14:28:29;6.88;;;2.90;;
68792;SDS011;55778;54.346;10.210;2023-06-14T14:30:55;5.72;;;3.05;;
68792;SDS011;55778;54.346;10.210;2023-06-14T14:33:21;6.45;;;2.75;;
68792;SDS011;55778;54.346;10.210;2023-06-14T14:35:46;7.00;;;2.70;;
68792;SDS011;55778;54.346;10.210;2023-06-14T14:38:15;4.82;;;2.70;;
68792;SDS011;55778;54.346;10.210;2023-06-14T14:40:43;5.35;;;2.72;;
68792;SDS011;55778;54.346;10.210;2023-06-14T14:43:09;8.65;;;3.13;;
68792;SDS011;55778;54.346;10.210;2023-06-14T14:45:35;4.97;;;2.50;;
68792;SDS011;55778;54.346;10.210;2023-06-14T14:48:01;5.50;;;2.55;;
68792;SDS011;55778;54.346;10.210;2023-06-14T14:50:27;5.97;;;2.80;;
68792;SDS011;55778;54.346;10.210;2023-06-14T14:52:53;5.10;;;2.70;;
68792;SDS011;55778;54.346;10.210;2023-06-14T14:55:18;6.68;;;2.80;;
68792;SDS011;55778;54.346;10.210;2023-06-14T14:57:45;6.43;;;2.60;;